Time;durP1;ratioP1;P1;durP2;ratioP2;P2;SDS_P1;SDS_P2;PMS_P1;PMS_P2;Temp;Humidity;BMP_temperature;BMP_pressure;BME280_temperature;BME280_humidity;BME280_pressure;Samples;Min_cycle;Max_cycle;Signal;HPM_P1;HPM_P2
2022/08/25 04:22:36;;;;;;;29.17;14.85;;;21.20;99.90;;;;;;6270421;22;1323978;-75
2022/08/25 04:25:05;;;;;;;29.83;14.52;;;21.20;99.90;;;;;;6273281;22;20145;-72
2022/08/25 04:27:34;;;;;;;26.70;15.30;;;21.20;99.90;;;;;;6280276;22;20024;-72
2022/08/25 04:30:01;;;;;;;27.30;15.13;;;21.20;99.90;;;;;;6253771;22;20474;-73
2022/08/25 04:32:31;;;;;;;33.55;15.82;;;21.10;99.90;;;;;;6281017;22;20407;-72
2022/08/25 04:34:58;;;;;;;32.88;16.02;;;21.10;99.90;;;;;;6278428;22;20114;-72
2022/08/25 04:37:26;;;;;;;28.88;15.75;;;21.20;99.90;;;;;;6279048;22;20098;-72
2022/08/25 04:39:56;;;;;;;30.67;17.00;;;21.20;99.90;;;;;;6279813;22;20444;-72
2022/08/25 04:42:25;;;;;;;29.80;15.13;;;21.20;99.90;;;;;;6250204;22;20019;-72
2022/08/25 04:44:54;;;;;;;28.98;15.82;;;21.20;99.90;;;;;;6278783;22;20031;-73
2022/08/25 04:47:28;;;;;;;32.70;15.32;;;21.30;99.90;;;;;;6252480;22;20409;-76
2022/08/25 04:49:56;;;;;;;30.75;15.18;;;21.30;99.90;;;;;;6253577;22;20119;-76
2022/08/25 04:52:23;;;;;;;28.05;15.48;;;21.30;99.90;;;;;;6279256;22;20321;-75
2022/08/25 04:54:51;;;;;;;23.27;15.88;;;21.40;99.90;;;;;;6279243;22;20019;-75
2022/08/25 04:57:23;;;;;;;27.88;16.13;;;21.50;99.90;;;;;;6251907;22;20019;-73
2022/08/25 04:59:51;;;;;;;25.50;16.40;;;21.60;99.90;;;;;;6250976;22;20043;-74
2022/08/25 05:02:20;;;;;;;30.63;16.60;;;21.60;99.90;;;;;;6278927;22;20050;-73
2022/08/25 05:04:51;;;;;;;32.00;16.80;;;21.70;99.90;;;;;;6278775;22;20027;-77
2022/08/25 05:07:21;;;;;;;31.85;16.92;;;21.70;99.90;;;;;;6278091;22;20024;-77
2022/08/25 05:09:50;;;;;;;33.92;17.77;;;21.70;99.90;;;;;;6276137;22;20047;-74
2022/08/25 05:12:21;;;;;;;34.70;17.65;;;21.80;99.90;;;;;;6276931;22;20481;-73
2022/08/25 05:14:53;;;;;;;31.02;17.52;;;21.80;99.90;;;;;;6251317;22;20355;-74
2022/08/25 05:17:21;;;;;;;30.90;17.88;;;21.90;99.90;;;;;;6246939;22;20011;-76
2022/08/25 05:19:49;;;;;;;39.28;18.38;;;22.00;99.90;;;;;;6272245;22;20023;-76
2022/08/25 05:22:19;;;;;;;33.50;19.55;;;22.00;99.90;;;;;;6271934;22;20019;-77
2022/08/25 05:24:47;;;;;;;52.35;24.05;;;22.10;99.90;;;;;;6245189;22;20088;-77
2022/08/25 05:27:18;;;;;;;35.25;19.83;;;22.10;99.90;;;;;;6272997;22;20015;-77
2022/08/25 05:29:46;;;;;;;37.67;20.38;;;22.20;99.90;;;;;;6246269;22;20019;-75
2022/08/25 05:32:15;;;;;;;50.08;25.38;;;22.20;99.90;;;;;;6273847;22;20030;-73
2022/08/25 05:34:42;;;;;;;45.05;24.00;;;22.30;99.90;;;;;;6274012;22;20024;-75
2022/08/25 05:37:10;;;;;;;34.67;22.48;;;22.30;99.90;;;;;;6249286;22;20025;-74
2022/08/25 05:39:38;;;;;;;36.78;22.80;;;22.40;99.90;;;;;;6181363;23;20021;-77
2022/08/25 05:42:09;;;;;;;31.77;18.10;;;22.40;99.90;;;;;;6182307;23;20032;-77
2022/08/25 05:44:43;;;;;;;31.27;16.65;;;22.40;99.90;;;;;;6203110;23;20477;-73
2022/08/25 05:47:23;;;;;;;27.77;14.55;;;22.40;99.90;;;;;;6180864;23;20029;-79
2022/08/25 05:49:57;;;;;;;24.02;15.10;;;22.40;99.90;;;;;;6134006;23;20025;-78
2022/08/25 05:52:32;;;;;;;27.23;15.40;;;22.50;99.90;;;;;;6107140;23;20037;-75
2022/08/25 05:55:06;;;;;;;28.00;15.80;;;22.50;99.90;;;;;;6126850;23;20421;-76
2022/08/25 05:57:41;;;;;;;24.75;14.93;;;22.70;99.90;;;;;;6152979;23;20100;-75
2022/08/25 06:00:14;;;;;;;25.13;14.02;;;22.90;99.90;;;;;;6152134;23;20021;-76
2022/08/25 06:02:51;;;;;;;25.02;13.65;;;23.50;99.90;;;;;;6150369;23;20366;-76
2022/08/25 06:05:24;;;;;;;24.00;12.65;;;24.10;99.90;;;;;;6150895;23;20048;-77
2022/08/25 06:07:53;;;;;;;22.48;11.90;;;24.80;99.90;;;;;;6152446;23;20080;-78
2022/08/25 06:10:22;;;;;;;23.65;13.88;;;25.10;99.90;;;;;;6151050;23;20032;-77
2022/08/25 06:12:50;;;;;;;20.50;12.82;;;25.50;99.90;;;;;;6150698;23;20025;-78
2022/08/25 06:15:27;;;;;;;29.10;12.88;;;25.70;99.90;;;;;;6151447;23;20021;-75
2022/08/25 06:18:04;;;;;;;19.30;12.43;;;25.70;99.90;;;;;;6144627;23;20056;-75
2022/08/25 06:20:34;;;;;;;24.98;12.57;;;25.80;99.90;;;;;;6151337;23;20104;-74
2022/08/25 06:23:06;;;;;;;24.52;10.88;;;25.90;99.90;;;;;;6133010;23;20021;-74
2022/08/25 06:25:38;;;;;;;19.45;9.05;;;26.40;99.90;;;;;;6175355;23;20028;-74
2022/08/25 06:28:07;;;;;;;21.30;9.52;;;27.10;99.90;;;;;;6174013;23;20551;-73
2022/08/25 06:30:40;;;;;;;12.65;7.65;;;27.80;99.90;;;;;;6173222;23;20473;-73
2022/08/25 06:33:10;;;;;;;16.17;8.48;;;28.40;99.90;;;;;;6153141;23;20027;-73
2022/08/25 06:35:42;;;;;;;14.95;8.38;;;28.60;99.90;;;;;;6172800;23;20028;-74
2022/08/25 06:38:10;;;;;;;14.75;7.43;;;28.40;99.90;;;;;;6175707;23;20070;-74
2022/08/25 06:40:39;;;;;;;18.10;8.50;;;27.90;99.90;;;;;;6173373;23;20029;-79
2022/08/25 06:43:08;;;;;;;23.20;8.75;;;27.50;99.90;;;;;;6175526;23;20045;-76
2022/08/25 06:45:35;;;;;;;20.40;8.93;;;27.10;99.90;;;;;;6175267;23;20057;-77
2022/08/25 06:48:03;;;;;;;16.05;7.63;;;26.90;99.90;;;;;;6176383;23;20446;-78
2022/08/25 06:50:35;;;;;;;15.55;8.20;;;26.60;99.90;;;;;;6175455;23;20025;-77
2022/08/25 06:53:04;;;;;;;23.20;7.93;;;26.30;99.90;;;;;;6176713;23;20017;-76
2022/08/25 06:55:33;;;;;;;15.75;8.07;;;26.10;99.90;;;;;;6177285;23;20454;-77
2022/08/25 06:58:02;;;;;;;19.33;7.10;;;25.90;99.90;;;;;;6176032;23;20029;-76
2022/08/25 07:00:32;;;;;;;12.73;7.13;;;25.70;99.90;;;;;;6178172;23;20075;-76
2022/08/25 07:03:00;;;;;;;17.70;7.57;;;25.60;99.90;;;;;;6176717;23;20061;-76
2022/08/25 07:05:29;;;;;;;25.35;8.00;;;25.40;99.90;;;;;;6176919;23;20393;-77
2022/08/25 07:08:05;;;;;;;14.70;6.30;;;25.40;99.90;;;;;;6174776;23;20071;-78
2022/08/25 07:10:35;;;;;;;15.52;6.68;;;25.20;99.90;;;;;;6176901;23;20079;-75
2022/08/25 07:13:03;;;;;;;15.35;6.40;;;25.20;99.90;;;;;;6197782;23;20043;-74
2022/08/25 07:15:30;;;;;;;15.68;6.35;;;25.20;99.90;;;;;;6175595;23;20029;-75
2022/08/25 07:17:58;;;;;;;19.73;7.68;;;25.20;99.90;;;;;;6174313;23;20020;-76
2022/08/25 07:20:25;;;;;;;11.57;5.85;;;25.20;99.90;;;;;;6176408;23;20393;-77
2022/08/25 07:22:53;;;;;;;15.48;6.65;;;25.10;99.90;;;;;;6172787;23;20083;-76
2022/08/25 07:25:22;;;;;;;20.17;7.45;;;25.10;99.90;;;;;;6178226;23;20448;-76
2022/08/25 07:27:49;;;;;;;16.55;7.72;;;25.00;99.90;;;;;;6175431;23;20017;-77
2022/08/25 07:30:18;;;;;;;16.75;7.00;;;25.00;99.90;;;;;;6175757;23;20096;-75
2022/08/25 07:32:46;;;;;;;10.40;6.22;;;25.10;99.90;;;;;;6175188;23;20025;-75
2022/08/25 07:35:17;;;;;;;15.02;6.45;;;25.20;99.90;;;;;;6174331;23;20021;-76
2022/08/25 07:37:48;;;;;;;14.95;6.57;;;25.30;99.90;;;;;;6171058;23;20466;-75
2022/08/25 07:40:23;;;;;;;20.98;6.28;;;25.40;99.90;;;;;;6175741;23;20448;-75
2022/08/25 07:42:56;;;;;;;15.88;7.18;;;25.70;99.90;;;;;;6198790;23;20358;-75
2022/08/25 07:45:29;;;;;;;23.08;7.15;;;25.80;99.90;;;;;;6174306;23;20051;-78
2022/08/25 07:47:58;;;;;;;13.98;6.85;;;26.00;99.90;;;;;;6174432;23;20342;-74
2022/08/25 07:50:27;;;;;;;10.70;6.30;;;26.20;99.90;;;;;;6176271;23;20607;-77
2022/08/25 07:52:55;;;;;;;19.63;7.07;;;26.60;99.90;;;;;;6175703;23;20032;-77
2022/08/25 07:55:26;;;;;;;15.10;6.20;;;26.90;99.90;;;;;;6176753;23;20025;-79
2022/08/25 07:57:55;;;;;;;21.08;7.30;;;26.90;99.90;;;;;;6177737;23;20025;-78
2022/08/25 08:00:26;;;;;;;16.30;7.18;;;26.80;99.90;;;;;;6175524;23;20037;-77
2022/08/25 08:02:53;;;;;;;14.65;6.55;;;26.80;99.90;;;;;;6177991;23;20021;-76
2022/08/25 08:05:21;;;;;;;14.13;6.57;;;26.80;99.90;;;;;;6176415;23;20331;-75
2022/08/25 08:07:48;;;;;;;18.17;6.85;;;27.10;99.90;;;;;;6178107;23;20021;-75
2022/08/25 08:10:16;;;;;;;18.42;7.50;;;27.40;99.90;;;;;;6175352;23;20021;-75
2022/08/25 08:12:45;;;;;;;16.42;6.53;;;27.70;99.90;;;;;;6176644;23;20028;-74
2022/08/25 08:15:13;;;;;;;11.60;6.43;;;28.10;99.90;;;;;;6175040;23;20025;-75
2022/08/25 08:17:41;;;;;;;15.60;7.50;;;28.50;99.90;;;;;;6176089;23;20160;-74
2022/08/25 08:20:14;;;;;;;16.58;6.63;;;28.70;99.90;;;;;;6174835;23;20393;-75
2022/08/25 08:22:44;;;;;;;15.70;6.30;;;28.70;99.90;;;;;;6176328;23;20053;-75
2022/08/25 08:25:12;;;;;;;13.52;6.38;;;28.60;99.90;;;;;;6175704;23;20053;-74
2022/08/25 08:27:41;;;;;;;24.67;8.00;;;28.50;99.90;;;;;;6175753;23;20300;-76
2022/08/25 08:30:13;;;;;;;18.10;7.22;;;28.40;99.90;;;;;;6176630;23;20357;-74
2022/08/25 08:32:40;;;;;;;12.20;6.63;;;28.30;99.90;;;;;;6178059;23;20025;-74
2022/08/25 08:35:10;;;;;;;21.55;8.20;;;28.20;99.90;;;;;;6173291;23;20028;-75
2022/08/25 08:37:40;;;;;;;17.90;7.35;;;27.90;99.90;;;;;;6177726;23;20462;-75
2022/08/25 08:40:11;;;;;;;15.38;6.72;;;27.70;99.90;;;;;;6176780;23;20397;-79
2022/08/25 08:43:01;;;;;;;14.18;6.82;;;27.60;99.90;;;;;;6176872;23;20017;-76
2022/08/25 08:45:36;;;;;;;17.05;7.53;;;27.30;99.90;;;;;;6197714;23;20394;-77
2022/08/25 08:48:34;;;;;;;16.05;7.55;;;27.10;99.90;;;;;;6173131;23;20025;-74
2022/08/25 08:51:20;;;;;;;28.58;17.63;;;26.90;99.90;;;;;;6174292;23;20021;-76
2022/08/25 08:53:55;;;;;;;15.68;7.10;;;26.70;99.90;;;;;;6176365;23;20017;-75
2022/08/25 08:56:26;;;;;;;16.25;7.75;;;26.50;99.90;;;;;;6178325;23;20029;-76
2022/08/25 08:58:58;;;;;;;19.93;12.40;;;26.40;99.90;;;;;;6174783;23;20094;-75
2022/08/25 09:01:33;;;;;;;12.57;7.35;;;26.20;99.90;;;;;;6179160;23;20021;-75
2022/08/25 09:04:15;;;;;;;16.67;7.60;;;26.00;99.90;;;;;;6177062;23;20025;-74
2022/08/25 09:06:46;;;;;;;21.38;10.68;;;25.90;99.90;;;;;;6180016;23;20889;-75
2022/08/25 09:09:23;;;;;;;15.43;7.23;;;25.90;99.90;;;;;;6177559;23;20035;-75
2022/08/25 09:12:09;;;;;;;19.58;8.20;;;25.90;99.90;;;;;;6178574;23;20725;-75
2022/08/25 09:14:55;;;;;;;19.55;7.53;;;25.90;99.90;;;;;;6177549;23;20466;-75
2022/08/25 09:17:47;;;;;;;19.35;8.88;;;26.00;99.90;;;;;;6198630;23;20492;-75
2022/08/25 09:20:47;;;;;;;19.65;8.63;;;26.00;99.90;;;;;;6176812;23;20529;-75
2022/08/25 09:23:30;;;;;;;16.63;7.40;;;26.00;99.90;;;;;;6174642;23;20027;-75
2022/08/25 09:26:16;;;;;;;19.27;7.85;;;26.10;99.90;;;;;;6177777;23;20051;-74
2022/08/25 09:28:50;;;;;;;17.50;7.60;;;26.20;99.90;;;;;;6176226;23;20044;-76
2022/08/25 09:31:23;;;;;;;20.85;9.55;;;26.50;99.90;;;;;;6177885;23;20017;-77
2022/08/25 09:33:57;;;;;;;15.52;7.95;;;27.10;99.90;;;;;;6177772;23;20027;-77
2022/08/25 09:36:25;;;;;;;21.92;9.38;;;27.60;99.90;;;;;;6177287;23;20677;-81
2022/08/25 09:38:55;;;;;;;18.45;8.95;;;28.10;99.90;;;;;;6150171;23;20120;-76
2022/08/25 09:41:42;;;;;;;17.13;9.45;;;28.50;99.90;;;;;;6177070;23;20020;-75
2022/08/25 09:44:21;;;;;;;17.10;8.38;;;28.90;99.90;;;;;;6177011;23;20051;-75
2022/08/25 09:47:02;;;;;;;16.23;8.05;;;29.30;99.90;;;;;;6176791;23;20667;-78
2022/08/25 09:49:40;;;;;;;16.40;8.25;;;29.50;99.90;;;;;;6176977;23;20063;-76
2022/08/25 09:52:32;;;;;;;16.40;7.95;;;29.60;99.90;;;;;;6174855;23;20270;-76
2022/08/25 09:55:30;;;;;;;14.95;7.65;;;29.50;99.90;;;;;;6176989;23;20025;-77
2022/08/25 09:57:58;;;;;;;15.32;6.57;;;29.30;99.90;;;;;;6176186;23;20028;-74
2022/08/25 10:00:32;;;;;;;17.88;7.35;;;28.90;99.90;;;;;;6177684;23;20025;-76
2022/08/25 10:03:20;;;;;;;21.83;7.22;;;28.60;99.90;;;;;;6180165;23;20052;-81
2022/08/25 10:06:12;;;;;;;18.77;7.53;;;28.40;99.90;;;;;;6178955;23;20025;-76
2022/08/25 10:08:54;;;;;;;15.88;7.82;;;28.40;99.90;;;;;;6179181;23;20025;-81
2022/08/25 10:11:38;;;;;;;21.65;7.15;;;28.60;99.90;;;;;;6178092;23;20021;-82
2022/08/25 10:14:18;;;;;;;16.50;7.68;;;29.00;99.90;;;;;;6178792;23;20397;-82
2022/08/25 10:16:47;;;;;;;25.08;10.63;;;29.70;99.90;;;;;;6180564;23;20349;-81
2022/08/25 10:19:26;;;;;;;25.23;12.63;;;30.40;99.90;;;;;;6177682;23;20017;-81
2022/08/25 10:22:10;;;;;;;16.70;8.77;;;30.30;99.90;;;;;;6180874;23;20361;-82
2022/08/25 10:24:40;;;;;;;20.73;9.57;;;29.60;99.90;;;;;;6179380;23;20055;-78
2022/08/25 10:27:21;;;;;;;20.50;11.13;;;29.00;99.90;;;;;;6180559;23;20029;-78
2022/08/25 10:30:15;;;;;;;31.83;8.80;;;28.60;99.90;;;;;;6181172;23;20021;-76
2022/08/25 10:33:12;;;;;;;24.27;8.32;;;28.20;99.90;;;;;;6204572;23;20033;-76
2022/08/25 10:35:54;;;;;;;22.75;8.27;;;27.80;99.90;;;;;;6181677;23;20027;-76
2022/08/25 10:38:42;;;;;;;25.45;9.43;;;27.60;99.90;;;;;;6181154;23;20057;-78
2022/08/25 10:41:40;;;;;;;23.33;9.35;;;27.50;99.90;;;;;;6181507;23;20083;-75
2022/08/25 10:47:43;;;;;;;19.85;7.93;;;28.20;99.90;;;;;;6128748;23;20025;-81
2022/08/25 10:50:23;;;;;;;17.23;7.38;;;28.40;99.90;;;;;;6159550;23;20299;-77
2022/08/25 10:53:09;;;;;;;16.60;7.82;;;28.30;99.90;;;;;;6175941;23;20025;-77
2022/08/25 10:55:57;;;;;;;14.18;7.90;;;28.20;99.90;;;;;;6177859;23;20031;-79
2022/08/25 10:58:58;;;;;;;21.70;7.88;;;27.90;99.90;;;;;;6176799;23;20116;-79
2022/08/25 11:01:40;;;;;;;17.23;8.40;;;27.50;99.90;;;;;;6180208;23;20032;-79
2022/08/25 11:04:13;;;;;;;16.73;7.40;;;27.10;99.90;;;;;;6175942;23;20572;-76
2022/08/25 11:06:49;;;;;;;13.32;7.43;;;26.80;99.90;;;;;;6180251;23;20040;-76
2022/08/25 11:09:24;;;;;;;16.63;6.97;;;26.50;99.90;;;;;;6153037;23;20031;-76
2022/08/25 11:11:58;;;;;;;22.55;6.45;;;26.30;99.90;;;;;;6203465;23;20099;-78
2022/08/25 11:14:33;;;;;;;11.85;6.90;;;26.20;99.90;;;;;;6177758;23;20434;-79
2022/08/25 11:17:14;;;;;;;14.85;7.18;;;26.10;99.90;;;;;;6176539;23;20025;-80
2022/08/25 11:19:46;;;;;;;12.95;7.25;;;26.20;99.90;;;;;;6177566;23;20809;-77
2022/08/25 11:22:27;;;;;;;15.90;7.50;;;26.30;99.90;;;;;;6177530;23;20517;-79
2022/08/25 11:25:11;;;;;;;15.48;7.95;;;26.40;99.90;;;;;;6150322;23;20044;-78
2022/08/25 11:27:52;;;;;;;19.90;7.75;;;26.40;99.90;;;;;;6154017;23;20071;-75
2022/08/25 11:30:21;;;;;;;19.13;7.40;;;26.30;99.90;;;;;;6177679;23;20025;-77
2022/08/25 11:32:52;;;;;;;16.33;7.45;;;26.30;99.90;;;;;;6178690;23;20017;-76
2022/08/25 11:35:33;;;;;;;14.10;7.05;;;26.30;99.90;;;;;;6179980;23;20048;-77
2022/08/25 11:38:22;;;;;;;13.88;7.43;;;26.20;99.90;;;;;;6179762;23;20028;-75
2022/08/25 11:41:06;;;;;;;18.27;8.13;;;26.10;99.90;;;;;;6181071;23;20025;-76
2022/08/25 11:44:07;;;;;;;15.52;7.45;;;26.10;99.90;;;;;;6155899;23;20025;-81
2022/08/25 11:47:08;;;;;;;15.75;6.40;;;26.10;99.90;;;;;;6206315;23;20028;-81
2022/08/25 11:49:53;;;;;;;15.20;7.63;;;26.00;99.90;;;;;;6181820;23;20025;-74
2022/08/25 11:52:47;;;;;;;14.88;6.57;;;26.00;99.90;;;;;;6182481;23;20017;-81
2022/08/25 11:55:19;;;;;;;13.98;7.50;;;25.80;99.90;;;;;;6181885;23;20040;-74
2022/08/25 11:57:51;;;;;;;10.77;5.88;;;25.90;99.90;;;;;;6180385;23;20409;-75
2022/08/25 12:00:52;;;;;;;15.85;6.22;;;26.00;99.90;;;;;;6182646;23;20029;-74
2022/08/25 12:04:01;;;;;;;11.10;5.90;;;26.30;99.90;;;;;;6180806;23;20532;-76
2022/08/25 12:10:21;;;;;;;10.77;5.18;;;26.30;99.90;;;;;;6175422;23;20021;-76
2022/08/25 12:13:32;;;;;;;9.25;5.40;;;26.20;99.90;;;;;;6181134;23;20025;-81
2022/08/25 12:21:16;;;;;;;10.50;5.88;;;25.60;99.90;;;;;;6066145;23;20128;-76
2022/08/25 12:24:08;;;;;;;13.13;5.43;;;25.40;99.90;;;;;;6154200;23;20115;-78
2022/08/25 12:26:46;;;;;;;15.10;5.07;;;25.20;99.90;;;;;;6181345;23;20525;-77
2022/08/25 12:29:24;;;;;;;11.60;4.25;;;24.90;99.90;;;;;;6156390;23;20048;-75
2022/08/25 12:32:07;;;;;;;10.65;4.88;;;24.80;99.90;;;;;;6182783;23;20020;-77
2022/08/25 12:35:10;;;;;;;11.35;4.30;;;24.60;99.90;;;;;;6184137;23;20020;-77
2022/08/25 12:37:54;;;;;;;;;;;24.50;99.90;;;;;;6185191;23;20029;-77
2022/08/25 12:40:30;;;;;;;12.98;5.30;;;24.40;99.90;;;;;;6181432;23;19924;-76
2022/08/25 12:43:26;;;;;;;14.05;4.60;;;24.30;99.90;;;;;;6159159;23;20024;-84
2022/08/25 12:46:33;;;;;;;15.48;4.60;;;24.30;99.90;;;;;;6181941;23;20080;-84
2022/08/25 12:49:04;;;;;;;8.90;4.50;;;24.20;99.90;;;;;;6182736;23;20459;-82
2022/08/25 12:51:53;;;;;;;6.60;3.80;;;24.10;99.90;;;;;;6181290;23;20151;-83
2022/08/25 12:54:32;;;;;;;6.88;3.90;;;24.10;99.90;;;;;;6182468;23;20072;-83
2022/08/25 12:57:05;;;;;;;14.13;4.28;;;23.90;99.90;;;;;;6181692;23;20027;-83
2022/08/25 12:59:40;;;;;;;8.43;4.05;;;23.90;99.90;;;;;;6181617;23;20040;-84
2022/08/25 13:02:55;;;;;;;8.35;2.90;;;23.80;99.90;;;;;;6180210;23;20032;-77
2022/08/25 13:06:08;;;;;;;4.50;3.50;;;23.80;99.90;;;;;;6182226;23;20446;-83
2022/08/25 13:09:39;;;;;;;9.35;3.60;;;23.70;99.90;;;;;;6126863;23;20266;-85
2022/08/25 13:12:16;;;;;;;7.88;3.33;;;23.60;99.90;;;;;;6191810;23;20020;-77
2022/08/25 13:14:52;;;;;;;9.20;3.28;;;23.50;99.90;;;;;;6185660;23;20025;-78
2022/08/25 13:17:27;;;;;;;5.95;3.30;;;23.50;99.90;;;;;;6184788;23;20418;-79
2022/08/25 13:20:14;;;;;;;9.38;3.90;;;23.50;99.90;;;;;;6182684;23;20048;-78
2022/08/25 13:22:47;;;;;;;7.07;3.90;;;23.80;99.90;;;;;;6183814;23;20458;-79
2022/08/25 13:25:18;;;;;;;10.68;4.90;;;25.00;99.90;;;;;;6183332;23;20035;-79
2022/08/25 13:27:51;;;;;;;11.13;3.15;;;26.00;99.90;;;;;;6206708;23;20029;-78
2022/08/25 13:30:26;;;;;;;10.13;3.20;;;26.80;99.90;;;;;;6184591;23;20021;-85
2022/08/25 13:32:55;;;;;;;5.63;2.60;;;27.50;99.90;;;;;;6183417;23;20025;-84
2022/08/25 13:35:26;;;;;;;3.90;1.92;;;28.20;99.90;;;;;;6183143;23;20024;-81
2022/08/25 13:37:53;;;;;;;4.30;2.28;;;29.30;99.90;;;;;;6180480;23;20104;-79
2022/08/25 13:40:32;;;;;;;5.10;2.20;;;30.50;97.50;;;;;;6156318;23;20444;-76
2022/08/25 13:43:05;;;;;;;4.57;2.05;;;32.00;90.30;;;;;;6181933;23;20357;-74
2022/08/25 13:45:38;;;;;;;5.35;2.20;;;31.60;84.70;;;;;;6182047;23;20072;-79
2022/08/25 13:48:06;;;;;;;4.95;2.20;;;30.30;87.70;;;;;;6181037;23;20036;-78
2022/08/25 13:50:38;;;;;;;3.80;2.17;;;29.40;89.10;;;;;;6181866;23;20021;-79
2022/08/25 13:53:11;;;;;;;;;;;28.70;91.90;;;;;;6182850;23;20104;-79
2022/08/25 13:55:50;;;;;;;3.67;1.75;;;29.00;92.10;;;;;;6184034;23;19920;-86
2022/08/25 13:58:24;;;;;;;2.65;1.50;;;29.40;90.70;;;;;;6182154;23;20032;-80
2022/08/25 14:01:09;;;;;;;3.92;1.98;;;29.20;89.40;;;;;;6183629;23;20108;-86
2022/08/25 14:03:40;;;;;;;4.40;1.95;;;28.60;90.80;;;;;;6182742;23;20021;-86
2022/08/25 14:06:20;;;;;;;2.57;1.97;;;28.00;92.00;;;;;;6185176;23;20024;-86
2022/08/25 14:09:08;;;;;;;10.02;1.75;;;27.30;93.10;;;;;;6183213;23;20453;-88
2022/08/25 14:11:45;;;;;;;4.47;1.88;;;26.70;95.00;;;;;;6181824;23;20021;-83
2022/08/25 14:14:31;;;;;;;3.55;2.10;;;26.20;96.80;;;;;;6185308;23;20025;-86
2022/08/25 14:17:07;;;;;;;2.25;1.70;;;25.80;98.80;;;;;;6186960;23;20021;-86
2022/08/25 14:19:43;;;;;;;3.38;1.50;;;25.50;99.70;;;;;;6206935;23;20033;-84
2022/08/25 14:22:14;;;;;;;2.20;1.60;;;25.20;99.90;;;;;;6180987;23;20017;-81
2022/08/25 14:24:44;;;;;;;3.83;1.50;;;25.10;99.90;;;;;;6180641;23;20111;-85
2022/08/25 14:27:12;;;;;;;4.43;2.03;;;25.60;99.90;;;;;;6155469;23;20405;-81
2022/08/25 14:29:41;;;;;;;3.65;1.75;;;25.90;99.90;;;;;;6180685;23;20032;-84
2022/08/25 14:32:10;;;;;;;5.25;1.85;;;25.80;99.90;;;;;;6182060;23;20055;-78
2022/08/25 14:34:39;;;;;;;5.15;1.88;;;25.50;99.90;;;;;;6182000;23;20028;-77
2022/08/25 14:37:13;;;;;;;2.85;1.63;;;25.20;99.90;;;;;;6182296;23;20101;-80
2022/08/25 14:39:43;;;;;;;3.95;1.73;;;24.90;99.90;;;;;;6180020;23;20029;-81
2022/08/25 14:42:16;;;;;;;4.20;1.60;;;24.70;99.90;;;;;;6171629;23;20360;-80
2022/08/25 14:44:47;;;;;;;2.97;1.83;;;24.50;99.90;;;;;;6177880;23;20020;-79
2022/08/25 14:47:15;;;;;;;3.20;1.50;;;24.30;99.90;;;;;;6180921;23;20064;-77
2022/08/25 14:49:49;;;;;;;2.28;1.50;;;24.20;99.90;;;;;;6174493;23;20104;-78
2022/08/25 14:52:25;;;;;;;4.50;1.10;;;24.20;99.90;;;;;;6179360;23;20021;-89
2022/08/25 14:54:56;;;;;;;3.50;1.67;;;24.20;99.90;;;;;;6175333;23;20484;-83
2022/08/25 14:57:25;;;;;;;4.10;1.60;;;24.20;99.90;;;;;;6179273;23;20047;-88
2022/08/25 14:59:54;;;;;;;1.73;1.33;;;24.60;99.90;;;;;;6174846;23;20477;-85
2022/08/25 15:02:25;;;;;;;9.73;1.45;;;24.80;99.90;;;;;;6178920;23;20025;-85
2022/08/25 15:05:04;;;;;;;1.40;1.30;;;25.00;99.90;;;;;;6178863;23;20024;-85
2022/08/25 15:10:23;;;;;;;3.05;1.50;;;25.30;99.90;;;;;;6176658;23;20052;-84
2022/08/25 15:12:52;;;;;;;2.30;1.50;;;25.20;99.90;;;;;;6177376;23;20071;-83
2022/08/25 15:15:25;;;;;;;2.55;1.50;;;25.10;99.90;;;;;;6171740;23;20361;-84
2022/08/25 15:17:53;;;;;;;3.00;1.00;;;24.90;99.90;;;;;;6174902;23;20099;-83
2022/08/25 15:20:22;;;;;;;1.35;1.17;;;24.70;99.90;;;;;;6173288;23;20128;-84
2022/08/25 15:25:57;;;;;;;2.10;1.10;;;24.30;99.90;;;;;;6157180;23;20095;-84
2022/08/25 15:28:28;;;;;;;2.20;1.52;;;24.00;99.90;;;;;;6182498;23;20124;-85
2022/08/25 15:30:58;;;;;;;3.75;1.15;;;23.60;99.90;;;;;;6150662;23;20036;-86
2022/08/25 15:33:27;;;;;;;1.83;1.30;;;23.20;99.90;;;;;;6169809;23;20031;-80
2022/08/25 15:35:56;;;;;;;5.45;1.00;;;23.00;99.90;;;;;;6176163;23;20047;-83
2022/08/25 15:38:27;;;;;;;2.65;0.88;;;22.90;99.90;;;;;;6171253;23;20032;-86
2022/08/25 15:40:54;;;;;;;3.00;1.80;;;22.80;99.90;;;;;;6177733;23;20021;-86
2022/08/25 15:43:27;;;;;;;2.50;1.35;;;22.70;99.90;;;;;;6172548;23;20037;-83
2022/08/25 15:45:58;;;;;;;3.65;1.20;;;22.60;99.90;;;;;;6174138;23;20279;-83
2022/08/25 15:48:26;;;;;;;1.63;1.50;;;22.60;99.90;;;;;;6175039;23;20021;-84
2022/08/25 15:50:57;;;;;;;1.80;1.70;;;22.60;99.90;;;;;;6177275;23;20052;-83
2022/08/25 15:53:26;;;;;;;4.32;1.67;;;22.70;99.90;;;;;;6174951;23;20025;-84
2022/08/25 15:55:56;;;;;;;3.13;1.40;;;22.60;99.90;;;;;;6175636;23;20505;-86
2022/08/25 15:58:24;;;;;;;3.58;1.23;;;22.60;99.90;;;;;;6173475;23;20021;-84
2022/08/25 16:00:53;;;;;;;2.00;1.23;;;22.60;99.90;;;;;;6176375;23;20467;-85
2022/08/25 16:03:22;;;;;;;4.10;1.67;;;22.50;99.90;;;;;;6173077;23;20028;-84
2022/08/25 16:05:53;;;;;;;2.28;1.10;;;22.50;99.90;;;;;;6177071;23;20025;-79
2022/08/25 16:08:24;;;;;;;1.88;1.13;;;22.50;99.90;;;;;;6172416;23;20028;-78
2022/08/25 16:10:52;;;;;;;5.82;1.65;;;22.50;99.90;;;;;;6199257;23;20095;-78
2022/08/25 16:13:21;;;;;;;2.25;1.38;;;22.50;99.90;;;;;;6172697;23;20021;-78
2022/08/25 16:15:49;;;;;;;2.38;1.50;;;22.40;99.90;;;;;;6176811;23;20472;-77
2022/08/25 16:18:17;;;;;;;6.03;2.17;;;22.40;99.90;;;;;;6173206;23;20029;-78
2022/08/25 16:20:49;;;;;;;2.70;1.95;;;22.40;99.90;;;;;;6173916;23;20429;-78
2022/08/25 16:23:18;;;;;;;2.72;1.23;;;22.40;99.90;;;;;;6174793;23;20465;-80
2022/08/25 16:25:48;;;;;;;4.88;1.77;;;22.30;99.90;;;;;;6172395;23;20076;-80
2022/08/25 16:28:19;;;;;;;4.55;2.72;;;22.30;99.90;;;;;;6196400;23;20057;-78
2022/08/25 16:30:47;;;;;;;7.30;2.08;;;22.30;99.90;;;;;;6174647;23;20084;-82
2022/08/25 16:33:16;;;;;;;4.03;2.50;;;22.30;99.90;;;;;;6173879;23;20041;-82
2022/08/25 16:35:46;;;;;;;2.88;2.03;;;22.20;99.90;;;;;;6175044;23;20005;-82
2022/08/25 16:38:13;;;;;;;2.50;2.00;;;22.20;99.90;;;;;;6171678;23;20028;-82
2022/08/25 16:40:42;;;;;;;4.55;2.05;;;22.10;99.90;;;;;;6174759;23;20029;-80
2022/08/25 16:43:11;;;;;;;7.15;5.13;;;22.00;99.90;;;;;;6173278;23;20021;-79
2022/08/25 16:45:38;;;;;;;6.20;2.75;;;21.90;99.90;;;;;;6172910;23;20028;-80
2022/08/25 16:48:07;;;;;;;11.30;2.42;;;21.80;99.90;;;;;;6171678;23;20021;-77
2022/08/25 16:50:38;;;;;;;2.28;2.00;;;21.80;99.90;;;;;;6196656;23;20518;-80
2022/08/25 16:56:01;;;;;;;6.75;3.30;;;21.80;99.90;;;;;;6173302;23;20021;-78
2022/08/25 16:58:28;;;;;;;6.60;2.60;;;21.80;99.90;;;;;;6172825;23;20458;-80
2022/08/25 17:00:56;;;;;;;2.15;1.95;;;21.80;99.90;;;;;;6170338;23;20033;-80
2022/08/25 17:03:24;;;;;;;6.95;2.38;;;21.90;99.90;;;;;;6175990;23;20021;-80
2022/08/25 17:05:51;;;;;;;4.40;2.25;;;21.90;99.90;;;;;;6173944;23;20021;-79
2022/08/25 17:08:29;;;;;;;3.50;2.00;;;21.90;99.90;;;;;;6176625;23;20021;-79
2022/08/25 17:11:05;;;;;;;3.15;2.05;;;21.90;99.90;;;;;;6170645;23;20025;-79
2022/08/25 17:13:33;;;;;;;2.17;1.80;;;21.90;99.90;;;;;;6177085;23;20028;-79
2022/08/25 17:16:03;;;;;;;5.03;2.30;;;21.80;99.90;;;;;;6173592;23;20031;-75
2022/08/25 17:18:32;;;;;;;7.43;3.80;;;21.80;99.90;;;;;;6177406;23;20539;-77
2022/08/25 17:21:01;;;;;;;8.40;3.28;;;21.80;99.90;;;;;;6173192;23;20032;-76
2022/08/25 17:23:31;;;;;;;3.60;2.67;;;21.80;99.90;;;;;;6176274;23;20021;-76
2022/08/25 17:25:59;;;;;;;4.25;2.78;;;21.70;99.90;;;;;;6173069;23;20032;-75
2022/08/25 17:28:28;;;;;;;3.15;2.85;;;21.60;99.90;;;;;;6178355;23;20029;-77
2022/08/25 17:30:56;;;;;;;3.15;2.30;;;21.50;99.90;;;;;;6175592;23;20025;-77
2022/08/25 17:33:24;;;;;;;2.63;2.42;;;21.40;99.90;;;;;;6176837;23;20044;-77
2022/08/25 17:35:54;;;;;;;5.22;3.25;;;21.40;99.90;;;;;;6173749;23;20021;-75
2022/08/25 17:38:25;;;;;;;4.78;4.15;;;21.20;99.90;;;;;;6176820;23;20025;-77
2022/08/25 17:40:58;;;;;;;6.65;5.28;;;21.20;99.90;;;;;;6171691;23;20084;-75
2022/08/25 17:43:27;;;;;;;4.30;3.28;;;21.10;99.90;;;;;;6175926;23;20040;-77
2022/08/25 17:45:56;;;;;;;4.32;3.92;;;21.00;99.90;;;;;;6172637;23;20088;-75
2022/08/25 17:48:24;;;;;;;4.40;2.67;;;21.00;99.90;;;;;;6176746;23;20497;-77
2022/08/25 17:50:54;;;;;;;3.50;3.20;;;20.90;99.90;;;;;;6175338;23;20120;-76
2022/08/25 17:53:24;;;;;;;2.55;2.38;;;20.80;99.90;;;;;;6172754;23;20020;-79
2022/08/25 17:56:03;;;;;;;3.72;2.40;;;20.80;99.90;;;;;;6177051;23;20462;-78
2022/08/25 17:58:33;;;;;;;4.35;3.72;;;20.80;99.90;;;;;;6182713;23;20025;-78